MV Sea Wolf — WCW6738 — position and weather

sailwx.info

Track history (hours):
 
Tides and Currents Weather Stations Pressure Air Temp Water Temp Dewpoint Dewpoint Depression Visibility Wind Speed Wind Dir Waves Ship Positions

MV Sea Wolf

Owner: SEA WOLF MARINE TOWING & TRANSPORTATION, Bayonne, NJ. More information available from US FCC via Universal Licensing System and Coast Guard Vessel Documentation Center.

Last reported at 2015-May-25 17:33 UTC. Time now 2015-May-25 17:41 UTC.
Position N 39°45' W 074°07'.

Length 66 m; draft 10 m.

MMSI: 367002350.

Date/timePositionNaut miles runAvg speedWind from/ knotsBaromVisibWave heightAir tempDewpointWater temp
2015-May-25 17:33N 39°45' W 074°07'0 0.0
2015-May-25 16:33N 39°45' W 074°07'0 0.0
2015-May-25 15:33N 39°45' W 074°07'0 0.0
2015-May-25 14:33N 39°45' W 074°07'0 0.0
2015-May-25 13:33N 39°45' W 074°07'0 0.0
2015-May-25 12:33N 39°45' W 074°07'1 1.1
2015-May-25 11:32N 39°46' W 074°05'1 1.1
2015-May-25 10:33N 39°45' W 074°07'0 0.0
2015-May-25 09:33N 39°45' W 074°07'0 0.0
2015-May-25 08:33N 39°45' W 074°07'0 0.0
2015-May-25 07:33N 39°45' W 074°07'0 0.0
2015-May-25 06:33N 39°45' W 074°07'0 0.0
2015-May-25 05:33N 39°45' W 074°07'0 0.0
2015-May-25 04:33N 39°45' W 074°07'0 0.0
2015-May-25 03:33N 39°45' W 074°07'0 0.0
2015-May-25 02:33N 39°45' W 074°07'0 0.0
2015-May-25 01:33N 39°45' W 074°07'0 0.0
2015-May-25 00:33N 39°45' W 074°07'0 0.0
2015-May-24 23:33N 39°45' W 074°07'0 0.0
2015-May-24 22:33N 39°45' W 074°07'0 0.0
2015-May-24 21:33N 39°45' W 074°07'0 0.0
2015-May-24 20:33N 39°45' W 074°07'0 0.0
2015-May-24 19:31N 39°45' W 074°07'0 0.0
2015-May-24 18:33N 39°45' W 074°07'0 0.0
2015-May-24 17:33N 39°45' W 074°07'0 0.0
2015-May-24 16:33N 39°45' W 074°07'0 0.0
2015-May-24 15:33N 39°45' W 074°07'0 0.0
2015-May-24 14:33N 39°45' W 074°07'0 0.0
2015-May-24 13:33N 39°45' W 074°07'0 0.0
2015-May-24 12:33N 39°45' W 074°07'0 0.0
2015-May-24 11:33N 39°45' W 074°07'0 0.0
2015-May-24 10:33N 39°45' W 074°07'0 0.0
2015-May-24 09:33N 39°45' W 074°07'0 0.0
2015-May-24 08:33N 39°45' W 074°07'0 0.0
2015-May-24 07:33N 39°45' W 074°07'0 0.0
2015-May-24 06:34N 39°45' W 074°07'0 0.0
2015-May-24 05:33N 39°45' W 074°07'0 0.0
2015-May-24 04:33N 39°45' W 074°07'0 0.0
2015-May-24 03:33N 39°45' W 074°07'0 0.0
2015-May-24 02:33N 39°45' W 074°07'0 0.0
2015-May-24 01:33N 39°45' W 074°07'0 0.0
2015-May-24 00:33N 39°45' W 074°07'0 0.0
2015-May-23 23:33N 39°45' W 074°07'0 0.0
2015-May-23 22:33N 39°45' W 074°07'0 0.0
2015-May-23 21:33N 39°45' W 074°07'0 0.0
2015-May-23 20:33N 39°45' W 074°07'0 0.0
2015-May-23 19:33N 39°45' W 074°07'1 1.3
2015-May-23 18:33N 39°46' W 074°05'11 5.1
2015-May-23 16:28N 39°36' W 074°12'1 1.2
2015-May-23 15:33N 39°35' W 074°13'1 1.3
2015-May-23 14:32N 39°34' W 074°13'1 0.6
2015-May-23 13:33N 39°35' W 074°13'0 0.1
2015-May-23 12:33N 39°35' W 074°13'0 0.5
2015-May-23 11:33N 39°35' W 074°13'1 1.5
2015-May-23 10:33N 39°36' W 074°11'2 1.9
2015-May-23 09:32N 39°38' W 074°10'2 2.4
2015-May-23 08:33N 39°40' W 074°08'3 2.9
2015-May-23 07:33N 39°42' W 074°06'3 3.2
2015-May-23 06:33N 39°45' W 074°04'3 3.3
2015-May-23 05:33N 39°48' W 074°04'4 3.3
2015-May-23 04:23N 39°52' W 074°04'24 3.9
2015-May-22 22:04N 40°16' W 073°58'6 4.0
2015-May-22 20:29N 40°22' W 073°57'4 4.3
2015-May-22 19:32N 40°26' W 073°58'3 2.8
2015-May-22 18:33N 40°28' W 074°01'2 0.9
2015-May-22 16:32N 40°26' W 074°00'0 0.1
2015-May-22 14:05N 40°26' W 073°60'1 2.1
2015-May-22 13:33N 40°25' W 074°01'1 1.3
2015-May-22 12:28N 40°26' W 074°00'0 0.1
2015-May-22 11:23N 40°26' W 074°00'2 2.2
2015-May-22 10:33N 40°25' W 074°02'0 0.0
2015-May-22 09:33N 40°25' W 074°02'0 0.0
2015-May-22 08:27N 40°25' W 074°02'0 0.0
2015-May-22 07:33N 40°25' W 074°02'0 0.0
2015-May-22 06:32N 40°25' W 074°02'1 0.6
2015-May-22 05:26N 40°25' W 074°01'4 4.5
2015-May-22 04:32N 40°29' W 074°00'8 6.4
2015-May-22 03:16N 40°21' W 073°57'8 7.1
2015-May-22 02:11N 40°14' W 073°59'5 7.0
2015-May-22 01:26N 40°09' W 074°01'13 7.0
2015-May-21 23:33N 39°56' W 074°03'7 6.9
2015-May-21 22:33N 39°49' W 074°04'7 6.5
2015-May-21 21:33N 39°43' W 074°07'5 5.2
2015-May-21 20:33N 39°38' W 074°10'4 4.0
2015-May-21 19:33N 39°35' W 074°13'4 3.7
2015-May-21 18:33N 39°38' W 074°10'1 0.7
2015-May-21 17:34N 39°39' W 074°10'0 0.3
2015-May-21 16:33N 39°39' W 074°10'0 0.1
2015-May-21 15:33N 39°39' W 074°10'0 0.0
2015-May-21 14:33N 39°39' W 074°10'2 1.9
2015-May-21 13:33N 39°40' W 074°09'5 5.5
2015-May-21 12:33N 39°45' W 074°05'2 1.5
2015-May-21 11:34N 39°45' W 074°07'0 0.0
2015-May-21 10:33N 39°45' W 074°07'0 0.0
2015-May-21 09:34N 39°45' W 074°07'0 0.0
2015-May-21 08:33N 39°45' W 074°07'0 0.0
2015-May-21 07:34N 39°45' W 074°07'0 0.0
2015-May-21 06:33N 39°45' W 074°07'0 0.0
2015-May-21 05:33N 39°45' W 074°07'0 0.0
2015-May-21 04:33N 39°45' W 074°07'0 0.0
2015-May-21 03:33N 39°45' W 074°07'0 0.0
2015-May-21 02:33N 39°45' W 074°07'0 0.0
2015-May-21 01:33N 39°45' W 074°07'0 0.0
2015-May-21 00:33N 39°45' W 074°07'0 0.0
2015-May-20 23:33N 39°45' W 074°07'0 0.0
2015-May-20 22:33N 39°45' W 074°07'0 0.0
2015-May-20 21:33N 39°45' W 074°07'0 0.0
2015-May-20 20:33N 39°45' W 074°07'1 1.0
2015-May-20 19:33N 39°46' W 074°06'4 4.4
2015-May-20 18:33N 39°42' W 074°07'5 4.5
2015-May-20 17:32N 39°38' W 074°10'0 0.1
2015-May-20 16:34N 39°38' W 074°10'0 0.2
2015-May-20 15:33N 39°38' W 074°10'0 0.3
2015-May-20 14:33N 39°38' W 074°10'0 0.0
2015-May-20 13:33N 39°38' W 074°10'1 0.9
2015-May-20 12:33N 39°39' W 074°10'5 4.7
2015-May-20 11:34N 39°43' W 074°06'3 3.1
2015-May-20 10:33N 39°46' W 074°06'1 0.8
2015-May-20 09:33N 39°45' W 074°07'0 0.0
2015-May-20 08:33N 39°45' W 074°07'0 0.0
2015-May-20 07:33N 39°45' W 074°07'0 0.0
2015-May-20 06:33N 39°45' W 074°07'0 0.0
2015-May-20 05:34N 39°45' W 074°07'0 0.0
2015-May-20 04:34N 39°45' W 074°07'0 0.0
2015-May-20 03:33N 39°45' W 074°07'0 0.0
2015-May-20 02:33N 39°45' W 074°07'0 0.0
2015-May-20 01:33N 39°45' W 074°07'0 0.0
2015-May-20 00:33N 39°45' W 074°07'0 0.0
2015-May-19 23:33N 39°45' W 074°07'0 0.0
2015-May-19 22:34N 39°45' W 074°07'0 0.0
2015-May-19 21:33N 39°45' W 074°07'0 0.0
2015-May-19 20:33N 39°45' W 074°07'0 0.0
2015-May-19 19:33N 39°45' W 074°07'0 0.0
2015-May-19 18:33N 39°45' W 074°07'0 0.0
2015-May-19 17:33N 39°45' W 074°07'0 0.0
2015-May-19 16:33N 39°45' W 074°07'0 0.0
2015-May-19 15:33N 39°45' W 074°07'0 0.0
2015-May-19 14:33N 39°45' W 074°07'0 0.0
2015-May-19 13:33N 39°45' W 074°07'0 0.0
2015-May-19 12:33N 39°45' W 074°07'0 0.0
2015-May-19 11:34N 39°45' W 074°07'1 1.0
2015-May-19 10:33N 39°46' W 074°06'1 1.0
2015-May-19 09:33N 39°45' W 074°07'0 0.0
2015-May-19 08:33N 39°45' W 074°07'0 0.0
2015-May-19 07:32N 39°45' W 074°07'0 0.0
2015-May-19 06:33N 39°45' W 074°07'0 0.0
2015-May-19 05:32N 39°45' W 074°07'0 0.0
2015-May-19 04:32N 39°45' W 074°07'0 0.0
2015-May-19 03:33N 39°45' W 074°07'0 0.0
2015-May-19 02:33N 39°45' W 074°07'0 0.0
2015-May-19 01:33N 39°45' W 074°07'0 0.0
2015-May-19 00:33N 39°45' W 074°07'0 0.0
2015-May-18 23:33N 39°45' W 074°07'0 0.0
2015-May-18 22:33N 39°45' W 074°07'0 0.0
2015-May-18 21:33N 39°45' W 074°07'0 0.0
2015-May-18 20:33N 39°45' W 074°07'0 0.0
2015-May-18 19:33N 39°45' W 074°07'0 0.0
2015-May-18 18:30N 39°45' W 074°07'1 1.1
2015-May-18 17:33N 39°46' W 074°06'1 1.1
2015-May-18 16:33N 39°45' W 074°07'0 0.0
2015-May-18 15:32N 39°45' W 074°07'1 1.0
2015-May-18 14:33N 39°46' W 074°06'1 1.0
2015-May-18 13:33N 39°45' W 074°07'0 0.0
2015-May-18 12:33N 39°45' W 074°07'0 0.0
2015-May-18 11:33N 39°45' W 074°07'0 0.0
2015-May-18 10:33N 39°45' W 074°07'0 0.0
2015-May-18 09:33N 39°45' W 074°07'0 0.0
2015-May-18 08:33N 39°45' W 074°07'0 0.0
2015-May-18 07:33N 39°45' W 074°07'0 0.0
2015-May-18 06:33N 39°45' W 074°07'0 0.0
2015-May-18 05:33N 39°45' W 074°07'0 0.0
2015-May-18 04:33N 39°45' W 074°07'0 0.0
2015-May-18 03:33N 39°45' W 074°07'0 0.0
2015-May-18 02:33N 39°45' W 074°07'0 0.0
2015-May-18 01:33N 39°45' W 074°07'0 0.0
2015-May-18 00:33N 39°45' W 074°07'0 0.0
2015-May-17 23:33N 39°45' W 074°07'0 0.0
2015-May-17 22:33N 39°45' W 074°07'0 0.0
2015-May-17 21:33N 39°45' W 074°07'0 0.1
2015-May-17 20:33N 39°45' W 074°07'1 1.1
2015-May-17 19:33N 39°46' W 074°06'4 4.3
2015-May-17 18:33N 39°42' W 074°08'4 4.0
2015-May-17 17:33N 39°38' W 074°10'0 0.3
2015-May-17 16:33N 39°38' W 074°10'1 0.7
2015-May-17 15:33N 39°38' W 074°11'0 0.0
2015-May-17 14:33N 39°38' W 074°11'1 0.6
2015-May-17 13:33N 39°38' W 074°11'1 0.5
2015-May-17 12:33N 39°38' W 074°11'2 2.0
2015-May-17 11:33N 39°39' W 074°09'4 4.1
2015-May-17 10:33N 39°43' W 074°07'4 3.8
2015-May-17 09:33N 39°46' W 074°04'4 4.0
2015-May-17 08:33N 39°50' W 074°04'13 4.1
2015-May-17 05:19N 40°03' W 074°01'4 4.1
2015-May-17 04:25N 40°07' W 074°00'5 4.3
2015-May-17 03:09N 40°12' W 073°59'4 4.3
2015-May-17 02:18N 40°16' W 073°58'11 4.2
2015-May-16 23:32N 40°27' W 073°59'2 1.9
2015-May-16 22:27N 40°28' W 074°01'3 2.6
2015-May-16 21:26N 40°25' W 074°02'2 2.0
2015-May-16 20:32N 40°26' W 074°00'0 0.0
2015-May-16 19:33N 40°26' W 074°00'2 1.8
2015-May-16 18:33N 40°25' W 074°02'0 0.0
2015-May-16 17:32N 40°25' W 074°02'1 1.2
2015-May-16 16:32N 40°26' W 074°01'1 0.6
2015-May-16 15:30N 40°26' W 074°00'0 0.0
2015-May-16 14:32N 40°26' W 074°00'0 0.0
2015-May-16 11:14N 40°26' W 074°00'0 0.0
2015-May-16 10:27N 40°26' W 074°00'0 0.0
2015-May-16 09:27N 40°26' W 074°00'0 0.0
2015-May-16 08:07N 40°26' W 074°00'0 0.0
2015-May-16 07:32N 40°26' W 074°00'0 0.0
2015-May-16 06:33N 40°26' W 074°00'0 0.0
2015-May-16 05:33N 40°26' W 074°00'0 0.0
2015-May-16 04:33N 40°26' W 074°00'0 0.0
2015-May-16 03:33N 40°26' W 074°00'0 0.0
2015-May-16 02:33N 40°26' W 074°00'0 0.0
2015-May-16 01:33N 40°26' W 074°00'0 0.0
2015-May-16 00:33N 40°26' W 074°00'0 0.0
2015-May-15 23:33N 40°26' W 074°00'0 0.0
2015-May-15 22:32N 40°26' W 074°00'2 1.8
2015-May-15 21:32N 40°25' W 074°02'0 0.0
2015-May-15 20:31N 40°25' W 074°02'0 0.0
2015-May-15 19:25N 40°25' W 074°02'0 0.0
2015-May-15 18:30N 40°25' W 074°02'  
Track history (hours):
 
Tides and Currents Weather Stations Pressure Air Temp Water Temp Dewpoint Dewpoint Depression Visibility Wind Speed Wind Dir Waves Ship Positions

MV Sea Wolf

Owner: SEA WOLF MARINE TOWING & TRANSPORTATION, Bayonne, NJ. More information available from US FCC via Universal Licensing System and Coast Guard Vessel Documentation Center.

Last reported at 2015-May-25 17:33 UTC. Time now 2015-May-25 17:41 UTC.
Position N 39°45' W 074°07'.

Length 66 m; draft 10 m.

MMSI: 367002350.

Date/timePositionNaut miles runAvg speedWind from/ knotsBaromVisibWave heightAir tempDewpointWater temp
2015-May-25 17:33N 39°45' W 074°07'0 0.0
2015-May-25 16:33N 39°45' W 074°07'0 0.0
2015-May-25 15:33N 39°45' W 074°07'0 0.0
2015-May-25 14:33N 39°45' W 074°07'0 0.0
2015-May-25 13:33N 39°45' W 074°07'0 0.0
2015-May-25 12:33N 39°45' W 074°07'1 1.1
2015-May-25 11:32N 39°46' W 074°05'1 1.1
2015-May-25 10:33N 39°45' W 074°07'0 0.0
2015-May-25 09:33N 39°45' W 074°07'0 0.0
2015-May-25 08:33N 39°45' W 074°07'0 0.0
2015-May-25 07:33N 39°45' W 074°07'0 0.0
2015-May-25 06:33N 39°45' W 074°07'0 0.0
2015-May-25 05:33N 39°45' W 074°07'0 0.0
2015-May-25 04:33N 39°45' W 074°07'0 0.0
2015-May-25 03:33N 39°45' W 074°07'0 0.0
2015-May-25 02:33N 39°45' W 074°07'0 0.0
2015-May-25 01:33N 39°45' W 074°07'0 0.0
2015-May-25 00:33N 39°45' W 074°07'0 0.0
2015-May-24 23:33N 39°45' W 074°07'0 0.0
2015-May-24 22:33N 39°45' W 074°07'0 0.0
2015-May-24 21:33N 39°45' W 074°07'0 0.0
2015-May-24 20:33N 39°45' W 074°07'0 0.0
2015-May-24 19:31N 39°45' W 074°07'0 0.0
2015-May-24 18:33N 39°45' W 074°07'0 0.0
2015-May-24 17:33N 39°45' W 074°07'0 0.0
2015-May-24 16:33N 39°45' W 074°07'0 0.0
2015-May-24 15:33N 39°45' W 074°07'0 0.0
2015-May-24 14:33N 39°45' W 074°07'0 0.0
2015-May-24 13:33N 39°45' W 074°07'0 0.0
2015-May-24 12:33N 39°45' W 074°07'0 0.0
2015-May-24 11:33N 39°45' W 074°07'0 0.0
2015-May-24 10:33N 39°45' W 074°07'0 0.0
2015-May-24 09:33N 39°45' W 074°07'0 0.0
2015-May-24 08:33N 39°45' W 074°07'0 0.0
2015-May-24 07:33N 39°45' W 074°07'0 0.0
2015-May-24 06:34N 39°45' W 074°07'0 0.0
2015-May-24 05:33N 39°45' W 074°07'0 0.0
2015-May-24 04:33N 39°45' W 074°07'0 0.0
2015-May-24 03:33N 39°45' W 074°07'0 0.0
2015-May-24 02:33N 39°45' W 074°07'0 0.0
2015-May-24 01:33N 39°45' W 074°07'0 0.0
2015-May-24 00:33N 39°45' W 074°07'0 0.0
2015-May-23 23:33N 39°45' W 074°07'0 0.0
2015-May-23 22:33N 39°45' W 074°07'0 0.0
2015-May-23 21:33N 39°45' W 074°07'0 0.0
2015-May-23 20:33N 39°45' W 074°07'0 0.0
2015-May-23 19:33N 39°45' W 074°07'1 1.3
2015-May-23 18:33N 39°46' W 074°05'11 5.1
2015-May-23 16:28N 39°36' W 074°12'1 1.2
2015-May-23 15:33N 39°35' W 074°13'1 1.3
2015-May-23 14:32N 39°34' W 074°13'1 0.6
2015-May-23 13:33N 39°35' W 074°13'0 0.1
2015-May-23 12:33N 39°35' W 074°13'0 0.5
2015-May-23 11:33N 39°35' W 074°13'1 1.5
2015-May-23 10:33N 39°36' W 074°11'2 1.9
2015-May-23 09:32N 39°38' W 074°10'2 2.4
2015-May-23 08:33N 39°40' W 074°08'3 2.9
2015-May-23 07:33N 39°42' W 074°06'3 3.2
2015-May-23 06:33N 39°45' W 074°04'3 3.3
2015-May-23 05:33N 39°48' W 074°04'4 3.3
2015-May-23 04:23N 39°52' W 074°04'24 3.9
2015-May-22 22:04N 40°16' W 073°58'6 4.0
2015-May-22 20:29N 40°22' W 073°57'4 4.3
2015-May-22 19:32N 40°26' W 073°58'3 2.8
2015-May-22 18:33N 40°28' W 074°01'2 0.9
2015-May-22 16:32N 40°26' W 074°00'0 0.1
2015-May-22 14:05N 40°26' W 073°60'1 2.1
2015-May-22 13:33N 40°25' W 074°01'1 1.3
2015-May-22 12:28N 40°26' W 074°00'0 0.1
2015-May-22 11:23N 40°26' W 074°00'2 2.2
2015-May-22 10:33N 40°25' W 074°02'0 0.0
2015-May-22 09:33N 40°25' W 074°02'0 0.0
2015-May-22 08:27N 40°25' W 074°02'0 0.0
2015-May-22 07:33N 40°25' W 074°02'0 0.0
2015-May-22 06:32N 40°25' W 074°02'1 0.6
2015-May-22 05:26N 40°25' W 074°01'4 4.5
2015-May-22 04:32N 40°29' W 074°00'8 6.4
2015-May-22 03:16N 40°21' W 073°57'8 7.1
2015-May-22 02:11N 40°14' W 073°59'5 7.0
2015-May-22 01:26N 40°09' W 074°01'13 7.0
2015-May-21 23:33N 39°56' W 074°03'7 6.9
2015-May-21 22:33N 39°49' W 074°04'7 6.5
2015-May-21 21:33N 39°43' W 074°07'5 5.2
2015-May-21 20:33N 39°38' W 074°10'4 4.0
2015-May-21 19:33N 39°35' W 074°13'4 3.7
2015-May-21 18:33N 39°38' W 074°10'1 0.7
2015-May-21 17:34N 39°39' W 074°10'0 0.3
2015-May-21 16:33N 39°39' W 074°10'0 0.1
2015-May-21 15:33N 39°39' W 074°10'0 0.0
2015-May-21 14:33N 39°39' W 074°10'2 1.9
2015-May-21 13:33N 39°40' W 074°09'5 5.5
2015-May-21 12:33N 39°45' W 074°05'2 1.5
2015-May-21 11:34N 39°45' W 074°07'0 0.0
2015-May-21 10:33N 39°45' W 074°07'0 0.0
2015-May-21 09:34N 39°45' W 074°07'0 0.0
2015-May-21 08:33N 39°45' W 074°07'0 0.0
2015-May-21 07:34N 39°45' W 074°07'0 0.0
2015-May-21 06:33N 39°45' W 074°07'0 0.0
2015-May-21 05:33N 39°45' W 074°07'0 0.0
2015-May-21 04:33N 39°45' W 074°07'0 0.0
2015-May-21 03:33N 39°45' W 074°07'0 0.0
2015-May-21 02:33N 39°45' W 074°07'0 0.0
2015-May-21 01:33N 39°45' W 074°07'0 0.0
2015-May-21 00:33N 39°45' W 074°07'0 0.0
2015-May-20 23:33N 39°45' W 074°07'0 0.0
2015-May-20 22:33N 39°45' W 074°07'0 0.0
2015-May-20 21:33N 39°45' W 074°07'0 0.0
2015-May-20 20:33N 39°45' W 074°07'1 1.0
2015-May-20 19:33N 39°46' W 074°06'4 4.4
2015-May-20 18:33N 39°42' W 074°07'5 4.5
2015-May-20 17:32N 39°38' W 074°10'0 0.1
2015-May-20 16:34N 39°38' W 074°10'0 0.2
2015-May-20 15:33N 39°38' W 074°10'0 0.3
2015-May-20 14:33N 39°38' W 074°10'0 0.0
2015-May-20 13:33N 39°38' W 074°10'1 0.9
2015-May-20 12:33N 39°39' W 074°10'5 4.7
2015-May-20 11:34N 39°43' W 074°06'3 3.1
2015-May-20 10:33N 39°46' W 074°06'1 0.8
2015-May-20 09:33N 39°45' W 074°07'0 0.0
2015-May-20 08:33N 39°45' W 074°07'0 0.0
2015-May-20 07:33N 39°45' W 074°07'0 0.0
2015-May-20 06:33N 39°45' W 074°07'0 0.0
2015-May-20 05:34N 39°45' W 074°07'0 0.0
2015-May-20 04:34N 39°45' W 074°07'0 0.0
2015-May-20 03:33N 39°45' W 074°07'0 0.0
2015-May-20 02:33N 39°45' W 074°07'0 0.0
2015-May-20 01:33N 39°45' W 074°07'0 0.0
2015-May-20 00:33N 39°45' W 074°07'0 0.0
2015-May-19 23:33N 39°45' W 074°07'0 0.0
2015-May-19 22:34N 39°45' W 074°07'0 0.0
2015-May-19 21:33N 39°45' W 074°07'0 0.0
2015-May-19 20:33N 39°45' W 074°07'0 0.0
2015-May-19 19:33N 39°45' W 074°07'0 0.0
2015-May-19 18:33N 39°45' W 074°07'0 0.0
2015-May-19 17:33N 39°45' W 074°07'0 0.0
2015-May-19 16:33N 39°45' W 074°07'0 0.0
2015-May-19 15:33N 39°45' W 074°07'0 0.0
2015-May-19 14:33N 39°45' W 074°07'0 0.0
2015-May-19 13:33N 39°45' W 074°07'0 0.0
2015-May-19 12:33N 39°45' W 074°07'0 0.0
2015-May-19 11:34N 39°45' W 074°07'1 1.0
2015-May-19 10:33N 39°46' W 074°06'1 1.0
2015-May-19 09:33N 39°45' W 074°07'0 0.0
2015-May-19 08:33N 39°45' W 074°07'0 0.0
2015-May-19 07:32N 39°45' W 074°07'0 0.0
2015-May-19 06:33N 39°45' W 074°07'0 0.0
2015-May-19 05:32N 39°45' W 074°07'0 0.0
2015-May-19 04:32N 39°45' W 074°07'0 0.0
2015-May-19 03:33N 39°45' W 074°07'0 0.0
2015-May-19 02:33N 39°45' W 074°07'0 0.0
2015-May-19 01:33N 39°45' W 074°07'0 0.0
2015-May-19 00:33N 39°45' W 074°07'0 0.0
2015-May-18 23:33N 39°45' W 074°07'0 0.0
2015-May-18 22:33N 39°45' W 074°07'0 0.0
2015-May-18 21:33N 39°45' W 074°07'0 0.0
2015-May-18 20:33N 39°45' W 074°07'0 0.0
2015-May-18 19:33N 39°45' W 074°07'0 0.0
2015-May-18 18:30N 39°45' W 074°07'1 1.1
2015-May-18 17:33N 39°46' W 074°06'1 1.1
2015-May-18 16:33N 39°45' W 074°07'0 0.0
2015-May-18 15:32N 39°45' W 074°07'1 1.0
2015-May-18 14:33N 39°46' W 074°06'1 1.0
2015-May-18 13:33N 39°45' W 074°07'0 0.0
2015-May-18 12:33N 39°45' W 074°07'0 0.0
2015-May-18 11:33N 39°45' W 074°07'0 0.0
2015-May-18 10:33N 39°45' W 074°07'0 0.0
2015-May-18 09:33N 39°45' W 074°07'0 0.0
2015-May-18 08:33N 39°45' W 074°07'0 0.0
2015-May-18 07:33N 39°45' W 074°07'0 0.0
2015-May-18 06:33N 39°45' W 074°07'0 0.0
2015-May-18 05:33N 39°45' W 074°07'0 0.0
2015-May-18 04:33N 39°45' W 074°07'0 0.0
2015-May-18 03:33N 39°45' W 074°07'0 0.0
2015-May-18 02:33N 39°45' W 074°07'0 0.0
2015-May-18 01:33N 39°45' W 074°07'0 0.0
2015-May-18 00:33N 39°45' W 074°07'0 0.0
2015-May-17 23:33N 39°45' W 074°07'0 0.0
2015-May-17 22:33N 39°45' W 074°07'0 0.0
2015-May-17 21:33N 39°45' W 074°07'0 0.1
2015-May-17 20:33N 39°45' W 074°07'1 1.1
2015-May-17 19:33N 39°46' W 074°06'4 4.3
2015-May-17 18:33N 39°42' W 074°08'4 4.0
2015-May-17 17:33N 39°38' W 074°10'0 0.3
2015-May-17 16:33N 39°38' W 074°10'1 0.7
2015-May-17 15:33N 39°38' W 074°11'0 0.0
2015-May-17 14:33N 39°38' W 074°11'1 0.6
2015-May-17 13:33N 39°38' W 074°11'1 0.5
2015-May-17 12:33N 39°38' W 074°11'2 2.0
2015-May-17 11:33N 39°39' W 074°09'4 4.1
2015-May-17 10:33N 39°43' W 074°07'4 3.8
2015-May-17 09:33N 39°46' W 074°04'4 4.0
2015-May-17 08:33N 39°50' W 074°04'13 4.1
2015-May-17 05:19N 40°03' W 074°01'4 4.1
2015-May-17 04:25N 40°07' W 074°00'5 4.3
2015-May-17 03:09N 40°12' W 073°59'4 4.3
2015-May-17 02:18N 40°16' W 073°58'11 4.2
2015-May-16 23:32N 40°27' W 073°59'2 1.9
2015-May-16 22:27N 40°28' W 074°01'3 2.6
2015-May-16 21:26N 40°25' W 074°02'2 2.0
2015-May-16 20:32N 40°26' W 074°00'0 0.0
2015-May-16 19:33N 40°26' W 074°00'2 1.8
2015-May-16 18:33N 40°25' W 074°02'0 0.0
2015-May-16 17:32N 40°25' W 074°02'1 1.2
2015-May-16 16:32N 40°26' W 074°01'1 0.6
2015-May-16 15:30N 40°26' W 074°00'0 0.0
2015-May-16 14:32N 40°26' W 074°00'0 0.0
2015-May-16 11:14N 40°26' W 074°00'0 0.0
2015-May-16 10:27N 40°26' W 074°00'0 0.0
2015-May-16 09:27N 40°26' W 074°00'0 0.0
2015-May-16 08:07N 40°26' W 074°00'0 0.0
2015-May-16 07:32N 40°26' W 074°00'0 0.0
2015-May-16 06:33N 40°26' W 074°00'0 0.0
2015-May-16 05:33N 40°26' W 074°00'0 0.0
2015-May-16 04:33N 40°26' W 074°00'0 0.0
2015-May-16 03:33N 40°26' W 074°00'0 0.0
2015-May-16 02:33N 40°26' W 074°00'0 0.0
2015-May-16 01:33N 40°26' W 074°00'0 0.0
2015-May-16 00:33N 40°26' W 074°00'0 0.0
2015-May-15 23:33N 40°26' W 074°00'0 0.0
2015-May-15 22:32N 40°26' W 074°00'2 1.8
2015-May-15 21:32N 40°25' W 074°02'0 0.0
2015-May-15 20:31N 40°25' W 074°02'0 0.0
2015-May-15 19:25N 40°25' W 074°02'0 0.0
2015-May-15 18:30N 40°25' W 074°02'  

Dump ship's entire track history